sensor_id;sensor_type;location;lat;lon;timestamp;P1;durP1;ratioP1;P2;durP2;ratioP2
25263;SDS011;13211;51.796;5.808;2022-12-05T00:01:34;72.60;;;30.77;;
25263;SDS011;13211;51.796;5.808;2022-12-05T00:04:04;75.05;;;32.00;;
25263;SDS011;13211;51.796;5.808;2022-12-05T00:06:32;70.55;;;31.58;;
25263;SDS011;13211;51.796;5.808;2022-12-05T00:09:00;67.68;;;30.50;;
25263;SDS011;13211;51.796;5.808;2022-12-05T00:11:30;64.30;;;29.73;;
25263;SDS011;13211;51.796;5.808;2022-12-05T00:13:59;74.93;;;31.63;;
25263;SDS011;13211;51.796;5.808;2022-12-05T00:16:28;69.47;;;31.38;;
25263;SDS011;13211;51.796;5.808;2022-12-05T00:19:01;74.25;;;33.55;;
25263;SDS011;13211;51.796;5.808;2022-12-05T00:21:30;68.43;;;30.95;;
25263;SDS011;13211;51.796;5.808;2022-12-05T00:23:59;74.03;;;32.33;;
25263;SDS011;13211;51.796;5.808;2022-12-05T00:26:28;75.75;;;32.75;;
25263;SDS011;13211;51.796;5.808;2022-12-05T00:28:57;74.80;;;32.28;;
25263;SDS011;13211;51.796;5.808;2022-12-05T00:31:26;69.57;;;30.85;;
25263;SDS011;13211;51.796;5.808;2022-12-05T00:33:58;76.20;;;31.42;;
25263;SDS011;13211;51.796;5.808;2022-12-05T00:36:28;80.18;;;34.28;;
25263;SDS011;13211;51.796;5.808;2022-12-05T00:38:58;70.32;;;31.45;;
25263;SDS011;13211;51.796;5.808;2022-12-05T00:41:28;74.68;;;32.42;;
25263;SDS011;13211;51.796;5.808;2022-12-05T00:43:57;73.25;;;31.38;;
25263;SDS011;13211;51.796;5.808;2022-12-05T00:46:25;69.22;;;30.67;;
25263;SDS011;13211;51.796;5.808;2022-12-05T00:48:54;80.90;;;33.17;;
25263;SDS011;13211;51.796;5.808;2022-12-05T00:51:24;74.90;;;31.90;;
25263;SDS011;13211;51.796;5.808;2022-12-05T00:53:58;75.88;;;33.03;;
25263;SDS011;13211;51.796;5.808;2022-12-05T00:56:29;73.60;;;32.55;;
25263;SDS011;13211;51.796;5.808;2022-12-05T00:58:58;73.85;;;32.83;;
25263;SDS011;13211;51.796;5.808;2022-12-05T01:03:33;75.70;;;30.95;;
25263;SDS011;13211;51.796;5.808;2022-12-05T01:06:02;78.70;;;31.27;;
25263;SDS011;13211;51.796;5.808;2022-12-05T01:08:32;81.40;;;32.22;;
25263;SDS011;13211;51.796;5.808;2022-12-05T01:11:00;75.95;;;32.35;;
25263;SDS011;13211;51.796;5.808;2022-12-05T01:13:30;72.38;;;33.05;;
25263;SDS011;13211;51.796;5.808;2022-12-05T01:15:59;76.60;;;32.22;;
25263;SDS011;13211;51.796;5.808;2022-12-05T01:18:28;76.55;;;32.90;;
25263;SDS011;13211;51.796;5.808;2022-12-05T01:20:56;80.82;;;33.67;;
25263;SDS011;13211;51.796;5.808;2022-12-05T01:23:24;77.95;;;31.42;;
25263;SDS011;13211;51.796;5.808;2022-12-05T01:25:51;81.78;;;35.42;;
25263;SDS011;13211;51.796;5.808;2022-12-05T01:28:19;72.30;;;32.58;;
25263;SDS011;13211;51.796;5.808;2022-12-05T01:30:48;76.47;;;31.55;;
25263;SDS011;13211;51.796;5.808;2022-12-05T01:33:16;80.05;;;34.08;;
25263;SDS011;13211;51.796;5.808;2022-12-05T01:35:44;80.80;;;34.65;;
25263;SDS011;13211;51.796;5.808;2022-12-05T01:38:12;78.43;;;33.40;;
25263;SDS011;13211;51.796;5.808;2022-12-05T01:40:39;77.75;;;31.80;;
25263;SDS011;13211;51.796;5.808;2022-12-05T01:43:15;85.95;;;33.25;;
25263;SDS011;13211;51.796;5.808;2022-12-05T01:45:44;80.20;;;34.13;;
25263;SDS011;13211;51.796;5.808;2022-12-05T01:48:23;84.22;;;33.22;;
25263;SDS011;13211;51.796;5.808;2022-12-05T01:50:52;88.30;;;35.93;;
25263;SDS011;13211;51.796;5.808;2022-12-05T01:53:20;78.85;;;34.25;;
25263;SDS011;13211;51.796;5.808;2022-12-05T01:55:49;83.38;;;35.45;;
25263;SDS011;13211;51.796;5.808;2022-12-05T01:58:17;83.20;;;34.55;;
25263;SDS011;13211;51.796;5.808;2022-12-05T02:00:46;85.60;;;35.78;;
25263;SDS011;13211;51.796;5.808;2022-12-05T02:03:16;81.40;;;34.47;;
25263;SDS011;13211;51.796;5.808;2022-12-05T02:05:46;80.28;;;35.58;;
25263;SDS011;13211;51.796;5.808;2022-12-05T02:08:14;91.55;;;34.53;;
25263;SDS011;13211;51.796;5.808;2022-12-05T02:10:44;82.55;;;34.20;;
25263;SDS011;13211;51.796;5.808;2022-12-05T02:15:44;89.88;;;36.35;;
25263;SDS011;13211;51.796;5.808;2022-12-05T02:18:33;89.00;;;36.78;;
25263;SDS011;13211;51.796;5.808;2022-12-05T02:21:32;93.00;;;37.05;;
25263;SDS011;13211;51.796;5.808;2022-12-05T02:26:58;93.75;;;37.65;;
25263;SDS011;13211;51.796;5.808;2022-12-05T02:32:11;90.68;;;36.45;;
25263;SDS011;13211;51.796;5.808;2022-12-05T02:37:21;92.82;;;36.88;;
25263;SDS011;13211;51.796;5.808;2022-12-05T02:39:59;97.75;;;36.92;;
25263;SDS011;13211;51.796;5.808;2022-12-05T02:45:16;94.63;;;37.97;;
25263;SDS011;13211;51.796;5.808;2022-12-05T02:47:46;97.43;;;38.17;;
25263;SDS011;13211;51.796;5.808;2022-12-05T02:50:16;90.10;;;35.75;;
25263;SDS011;13211;51.796;5.808;2022-12-05T02:52:46;85.85;;;35.33;;
25263;SDS011;13211;51.796;5.808;2022-12-05T02:55:16;86.85;;;36.85;;
25263;SDS011;13211;51.796;5.808;2022-12-05T02:57:47;88.80;;;35.47;;
25263;SDS011;13211;51.796;5.808;2022-12-05T03:00:17;89.97;;;35.67;;
25263;SDS011;13211;51.796;5.808;2022-12-05T03:02:46;88.53;;;37.08;;
25263;SDS011;13211;51.796;5.808;2022-12-05T03:05:49;94.68;;;36.35;;
25263;SDS011;13211;51.796;5.808;2022-12-05T03:08:10;86.25;;;35.30;;
25263;SDS011;13211;51.796;5.808;2022-12-05T03:13:08;87.97;;;33.90;;
25263;SDS011;13211;51.796;5.808;2022-12-05T03:15:40;88.22;;;35.90;;
25263;SDS011;13211;51.796;5.808;2022-12-05T03:18:22;91.00;;;36.03;;
25263;SDS011;13211;51.796;5.808;2022-12-05T03:20:53;94.78;;;36.67;;
25263;SDS011;13211;51.796;5.808;2022-12-05T03:23:24;94.50;;;37.28;;
25263;SDS011;13211;51.796;5.808;2022-12-05T03:31:08;89.32;;;35.47;;
25263;SDS011;13211;51.796;5.808;2022-12-05T03:33:39;83.45;;;35.53;;
25263;SDS011;13211;51.796;5.808;2022-12-05T03:36:10;85.80;;;35.40;;
25263;SDS011;13211;51.796;5.808;2022-12-05T03:38:44;80.55;;;35.03;;
25263;SDS011;13211;51.796;5.808;2022-12-05T03:41:15;93.40;;;37.97;;
25263;SDS011;13211;51.796;5.808;2022-12-05T03:46:25;92.97;;;36.55;;
25263;SDS011;13211;51.796;5.808;2022-12-05T03:49:06;93.25;;;36.10;;
25263;SDS011;13211;51.796;5.808;2022-12-05T03:51:37;85.05;;;35.35;;
25263;SDS011;13211;51.796;5.808;2022-12-05T03:56:45;79.63;;;34.42;;
25263;SDS011;13211;51.796;5.808;2022-12-05T03:59:19;83.30;;;33.70;;
25263;SDS011;13211;51.796;5.808;2022-12-05T04:01:49;81.50;;;34.13;;
25263;SDS011;13211;51.796;5.808;2022-12-05T04:04:20;80.75;;;34.95;;
25263;SDS011;13211;51.796;5.808;2022-12-05T04:06:51;79.18;;;33.35;;
25263;SDS011;13211;51.796;5.808;2022-12-05T04:09:25;80.80;;;33.45;;
25263;SDS011;13211;51.796;5.808;2022-12-05T04:12:00;74.03;;;31.15;;
25263;SDS011;13211;51.796;5.808;2022-12-05T04:14:31;69.22;;;31.30;;
25263;SDS011;13211;51.796;5.808;2022-12-05T04:17:06;76.13;;;30.88;;
25263;SDS011;13211;51.796;5.808;2022-12-05T04:22:26;71.38;;;30.88;;
25263;SDS011;13211;51.796;5.808;2022-12-05T04:24:54;66.90;;;29.35;;
25263;SDS011;13211;51.796;5.808;2022-12-05T04:30:19;68.63;;;29.73;;
25263;SDS011;13211;51.796;5.808;2022-12-05T04:32:54;63.55;;;29.58;;
25263;SDS011;13211;51.796;5.808;2022-12-05T04:35:26;64.70;;;28.45;;
25263;SDS011;13211;51.796;5.808;2022-12-05T04:40:58;64.50;;;27.80;;
25263;SDS011;13211;51.796;5.808;2022-12-05T04:43:17;61.50;;;28.50;;
25263;SDS011;13211;51.796;5.808;2022-12-05T04:45:46;58.65;;;27.70;;
25263;SDS011;13211;51.796;5.808;2022-12-05T04:48:15;67.90;;;28.92;;
25263;SDS011;13211;51.796;5.808;2022-12-05T04:50:44;62.35;;;27.52;;
25263;SDS011;13211;51.796;5.808;2022-12-05T04:53:13;53.60;;;25.88;;
25263;SDS011;13211;51.796;5.808;2022-12-05T04:55:42;67.75;;;29.05;;
25263;SDS011;13211;51.796;5.808;2022-12-05T04:58:12;61.85;;;27.60;;
25263;SDS011;13211;51.796;5.808;2022-12-05T05:03:47;60.90;;;27.17;;
25263;SDS011;13211;51.796;5.808;2022-12-05T05:06:06;58.63;;;26.77;;
25263;SDS011;13211;51.796;5.808;2022-12-05T05:08:33;50.30;;;25.13;;
25263;SDS011;13211;51.796;5.808;2022-12-05T05:11:08;55.38;;;27.42;;
25263;SDS011;13211;51.796;5.808;2022-12-05T05:13:38;56.20;;;26.92;;
25263;SDS011;13211;51.796;5.808;2022-12-05T05:16:06;64.35;;;27.73;;
25263;SDS011;13211;51.796;5.808;2022-12-05T05:18:34;59.33;;;26.77;;
25263;SDS011;13211;51.796;5.808;2022-12-05T05:21:02;60.78;;;28.23;;
25263;SDS011;13211;51.796;5.808;2022-12-05T05:23:29;56.78;;;26.63;;
25263;SDS011;13211;51.796;5.808;2022-12-05T05:25:57;59.60;;;27.23;;
25263;SDS011;13211;51.796;5.808;2022-12-05T05:28:25;63.80;;;27.13;;
25263;SDS011;13211;51.796;5.808;2022-12-05T05:30:53;61.28;;;27.80;;
25263;SDS011;13211;51.796;5.808;2022-12-05T05:33:20;58.45;;;26.08;;
25263;SDS011;13211;51.796;5.808;2022-12-05T05:35:49;62.80;;;26.35;;
25263;SDS011;13211;51.796;5.808;2022-12-05T05:38:16;59.60;;;27.58;;
25263;SDS011;13211;51.796;5.808;2022-12-05T05:40:44;58.58;;;27.35;;
25263;SDS011;13211;51.796;5.808;2022-12-05T05:43:12;58.95;;;26.63;;
25263;SDS011;13211;51.796;5.808;2022-12-05T05:45:40;61.45;;;26.60;;
25263;SDS011;13211;51.796;5.808;2022-12-05T05:48:07;58.17;;;26.40;;
25263;SDS011;13211;51.796;5.808;2022-12-05T05:50:35;63.00;;;27.42;;
25263;SDS011;13211;51.796;5.808;2022-12-05T05:53:10;58.30;;;27.17;;
25263;SDS011;13211;51.796;5.808;2022-12-05T05:55:39;59.15;;;26.55;;
25263;SDS011;13211;51.796;5.808;2022-12-05T05:58:07;57.40;;;27.60;;
25263;SDS011;13211;51.796;5.808;2022-12-05T06:00:35;59.60;;;27.27;;
25263;SDS011;13211;51.796;5.808;2022-12-05T06:03:02;54.83;;;27.15;;
25263;SDS011;13211;51.796;5.808;2022-12-05T06:05:30;57.17;;;26.85;;
25263;SDS011;13211;51.796;5.808;2022-12-05T06:07:58;60.53;;;27.88;;
25263;SDS011;13211;51.796;5.808;2022-12-05T06:10:27;58.15;;;27.05;;
25263;SDS011;13211;51.796;5.808;2022-12-05T06:12:56;58.53;;;27.45;;
25263;SDS011;13211;51.796;5.808;2022-12-05T06:15:24;56.75;;;26.98;;
25263;SDS011;13211;51.796;5.808;2022-12-05T06:17:51;63.80;;;29.05;;
25263;SDS011;13211;51.796;5.808;2022-12-05T06:20:19;57.17;;;26.98;;
25263;SDS011;13211;51.796;5.808;2022-12-05T06:22:47;57.88;;;27.17;;
25263;SDS011;13211;51.796;5.808;2022-12-05T06:25:15;55.33;;;27.13;;
25263;SDS011;13211;51.796;5.808;2022-12-05T06:27:42;58.15;;;27.42;;
25263;SDS011;13211;51.796;5.808;2022-12-05T06:30:11;61.55;;;28.20;;
25263;SDS011;13211;51.796;5.808;2022-12-05T06:32:39;55.08;;;27.25;;
25263;SDS011;13211;51.796;5.808;2022-12-05T06:35:07;60.03;;;29.08;;
25263;SDS011;13211;51.796;5.808;2022-12-05T06:37:42;62.95;;;28.55;;
25263;SDS011;13211;51.796;5.808;2022-12-05T06:40:10;59.35;;;27.80;;
25263;SDS011;13211;51.796;5.808;2022-12-05T06:42:38;63.55;;;28.50;;
25263;SDS011;13211;51.796;5.808;2022-12-05T06:45:06;62.85;;;28.88;;
25263;SDS011;13211;51.796;5.808;2022-12-05T06:47:34;69.28;;;31.38;;
25263;SDS011;13211;51.796;5.808;2022-12-05T06:50:02;64.50;;;29.48;;
25263;SDS011;13211;51.796;5.808;2022-12-05T06:52:30;70.60;;;30.55;;
25263;SDS011;13211;51.796;5.808;2022-12-05T06:54:59;65.13;;;30.75;;
25263;SDS011;13211;51.796;5.808;2022-12-05T06:57:27;66.55;;;30.85;;
25263;SDS011;13211;51.796;5.808;2022-12-05T06:59:55;64.88;;;30.17;;
25263;SDS011;13211;51.796;5.808;2022-12-05T07:02:41;67.65;;;29.92;;
25263;SDS011;13211;51.796;5.808;2022-12-05T07:05:09;64.53;;;30.30;;
25263;SDS011;13211;51.796;5.808;2022-12-05T07:07:37;69.88;;;30.65;;
25263;SDS011;13211;51.796;5.808;2022-12-05T07:10:05;63.03;;;30.25;;
25263;SDS011;13211;51.796;5.808;2022-12-05T07:12:33;57.92;;;28.98;;
25263;SDS011;13211;51.796;5.808;2022-12-05T07:15:02;64.75;;;30.38;;
25263;SDS011;13211;51.796;5.808;2022-12-05T07:17:29;62.53;;;28.88;;
25263;SDS011;13211;51.796;5.808;2022-12-05T07:19:57;63.88;;;30.10;;
25263;SDS011;13211;51.796;5.808;2022-12-05T07:22:25;62.30;;;29.23;;
25263;SDS011;13211;51.796;5.808;2022-12-05T07:24:53;62.65;;;29.60;;
25263;SDS011;13211;51.796;5.808;2022-12-05T07:27:21;61.70;;;28.73;;
25263;SDS011;13211;51.796;5.808;2022-12-05T07:29:54;58.30;;;28.85;;
25263;SDS011;13211;51.796;5.808;2022-12-05T07:32:22;58.03;;;27.83;;
25263;SDS011;13211;51.796;5.808;2022-12-05T07:34:50;58.95;;;29.13;;
25263;SDS011;13211;51.796;5.808;2022-12-05T07:37:21;57.72;;;27.52;;
25263;SDS011;13211;51.796;5.808;2022-12-05T07:39:51;59.38;;;27.50;;
25263;SDS011;13211;51.796;5.808;2022-12-05T07:42:19;58.65;;;28.63;;
25263;SDS011;13211;51.796;5.808;2022-12-05T07:44:46;55.28;;;27.33;;
25263;SDS011;13211;51.796;5.808;2022-12-05T07:47:14;54.40;;;27.35;;
25263;SDS011;13211;51.796;5.808;2022-12-05T07:49:43;55.53;;;26.38;;
25263;SDS011;13211;51.796;5.808;2022-12-05T07:52:11;52.70;;;27.35;;
25263;SDS011;13211;51.796;5.808;2022-12-05T07:54:39;56.83;;;28.60;;
25263;SDS011;13211;51.796;5.808;2022-12-05T07:57:06;55.95;;;27.73;;
25263;SDS011;13211;51.796;5.808;2022-12-05T07:59:34;51.85;;;27.30;;
25263;SDS011;13211;51.796;5.808;2022-12-05T08:02:02;56.30;;;27.83;;
25263;SDS011;13211;51.796;5.808;2022-12-05T08:04:30;53.50;;;27.73;;
25263;SDS011;13211;51.796;5.808;2022-12-05T08:06:58;58.00;;;28.02;;
25263;SDS011;13211;51.796;5.808;2022-12-05T08:09:26;55.28;;;27.80;;
25263;SDS011;13211;51.796;5.808;2022-12-05T08:11:54;56.80;;;27.30;;
25263;SDS011;13211;51.796;5.808;2022-12-05T08:14:22;53.78;;;26.75;;
25263;SDS011;13211;51.796;5.808;2022-12-05T08:16:51;53.17;;;27.27;;
25263;SDS011;13211;51.796;5.808;2022-12-05T08:19:18;54.65;;;27.33;;
25263;SDS011;13211;51.796;5.808;2022-12-05T08:21:46;51.45;;;26.98;;
25263;SDS011;13211;51.796;5.808;2022-12-05T08:24:13;55.17;;;27.27;;
25263;SDS011;13211;51.796;5.808;2022-12-05T08:26:41;55.78;;;28.33;;
25263;SDS011;13211;51.796;5.808;2022-12-05T08:29:10;52.17;;;27.30;;
25263;SDS011;13211;51.796;5.808;2022-12-05T08:31:43;50.28;;;26.38;;
25263;SDS011;13211;51.796;5.808;2022-12-05T08:34:14;49.55;;;25.85;;
25263;SDS011;13211;51.796;5.808;2022-12-05T08:36:42;51.15;;;26.17;;
25263;SDS011;13211;51.796;5.808;2022-12-05T08:39:12;51.10;;;26.65;;
25263;SDS011;13211;51.796;5.808;2022-12-05T08:41:42;49.95;;;25.80;;
25263;SDS011;13211;51.796;5.808;2022-12-05T08:44:10;48.70;;;25.58;;
25263;SDS011;13211;51.796;5.808;2022-12-05T08:46:43;50.53;;;26.35;;
25263;SDS011;13211;51.796;5.808;2022-12-05T08:49:11;47.35;;;24.58;;
25263;SDS011;13211;51.796;5.808;2022-12-05T08:51:39;43.83;;;22.83;;
25263;SDS011;13211;51.796;5.808;2022-12-05T08:54:07;47.75;;;23.90;;
25263;SDS011;13211;51.796;5.808;2022-12-05T08:56:35;47.35;;;23.45;;
25263;SDS011;13211;51.796;5.808;2022-12-05T08:59:04;42.38;;;22.85;;
25263;SDS011;13211;51.796;5.808;2022-12-05T09:01:33;46.83;;;23.85;;
25263;SDS011;13211;51.796;5.808;2022-12-05T09:04:05;38.00;;;21.13;;
25263;SDS011;13211;51.796;5.808;2022-12-05T09:06:33;41.13;;;22.23;;
25263;SDS011;13211;51.796;5.808;2022-12-05T09:09:04;39.92;;;21.35;;
25263;SDS011;13211;51.796;5.808;2022-12-05T09:11:34;35.83;;;20.58;;
25263;SDS011;13211;51.796;5.808;2022-12-05T09:14:04;37.60;;;20.58;;
25263;SDS011;13211;51.796;5.808;2022-12-05T09:16:33;39.92;;;19.83;;
25263;SDS011;13211;51.796;5.808;2022-12-05T09:19:05;37.97;;;20.27;;
25263;SDS011;13211;51.796;5.808;2022-12-05T09:24:02;35.03;;;19.92;;
25263;SDS011;13211;51.796;5.808;2022-12-05T09:26:29;37.28;;;19.88;;
25263;SDS011;13211;51.796;5.808;2022-12-05T09:29:02;35.20;;;19.30;;
25263;SDS011;13211;51.796;5.808;2022-12-05T09:31:29;36.72;;;19.63;;
25263;SDS011;13211;51.796;5.808;2022-12-05T09:33:57;35.25;;;19.80;;
25263;SDS011;13211;51.796;5.808;2022-12-05T09:36:26;37.65;;;19.55;;
25263;SDS011;13211;51.796;5.808;2022-12-05T09:38:55;38.47;;;20.30;;
25263;SDS011;13211;51.796;5.808;2022-12-05T09:44:57;32.80;;;17.27;;
25263;SDS011;13211;51.796;5.808;2022-12-05T09:47:00;31.50;;;18.10;;
25263;SDS011;13211;51.796;5.808;2022-12-05T09:49:29;31.73;;;17.75;;
25263;SDS011;13211;51.796;5.808;2022-12-05T09:51:59;30.75;;;17.42;;
25263;SDS011;13211;51.796;5.808;2022-12-05T09:54:28;33.03;;;17.38;;
25263;SDS011;13211;51.796;5.808;2022-12-05T09:56:58;39.92;;;17.42;;
25263;SDS011;13211;51.796;5.808;2022-12-05T09:59:25;32.67;;;18.50;;
25263;SDS011;13211;51.796;5.808;2022-12-05T10:04:32;32.15;;;17.52;;
25263;SDS011;13211;51.796;5.808;2022-12-05T10:07:16;28.90;;;16.42;;
25263;SDS011;13211;51.796;5.808;2022-12-05T10:15:10;26.10;;;14.93;;
25263;SDS011;13211;51.796;5.808;2022-12-05T10:17:40;27.98;;;15.35;;
25263;SDS011;13211;51.796;5.808;2022-12-05T10:20:13;24.58;;;14.70;;
25263;SDS011;13211;51.796;5.808;2022-12-05T10:25:09;27.48;;;15.25;;
25263;SDS011;13211;51.796;5.808;2022-12-05T10:28:01;25.00;;;14.98;;
25263;SDS011;13211;51.796;5.808;2022-12-05T10:30:29;22.23;;;14.02;;
25263;SDS011;13211;51.796;5.808;2022-12-05T10:32:58;23.35;;;13.88;;
25263;SDS011;13211;51.796;5.808;2022-12-05T10:35:35;24.15;;;13.35;;
25263;SDS011;13211;51.796;5.808;2022-12-05T10:40:39;24.75;;;13.52;;
25263;SDS011;13211;51.796;5.808;2022-12-05T10:43:09;21.38;;;12.75;;
25263;SDS011;13211;51.796;5.808;2022-12-05T10:45:42;20.58;;;12.93;;
25263;SDS011;13211;51.796;5.808;2022-12-05T10:48:10;21.55;;;12.25;;
25263;SDS011;13211;51.796;5.808;2022-12-05T10:50:39;21.33;;;12.60;;
25263;SDS011;13211;51.796;5.808;2022-12-05T10:53:10;23.67;;;12.90;;
25263;SDS011;13211;51.796;5.808;2022-12-05T10:55:40;19.25;;;12.13;;
25263;SDS011;13211;51.796;5.808;2022-12-05T10:58:26;19.65;;;11.95;;
25263;SDS011;13211;51.796;5.808;2022-12-05T11:00:55;20.45;;;11.50;;
25263;SDS011;13211;51.796;5.808;2022-12-05T11:05:52;17.67;;;11.35;;
25263;SDS011;13211;51.796;5.808;2022-12-05T11:08:24;21.20;;;11.48;;
25263;SDS011;13211;51.796;5.808;2022-12-05T11:13:54;20.23;;;11.60;;
25263;SDS011;13211;51.796;5.808;2022-12-05T11:16:26;20.20;;;11.70;;
25263;SDS011;13211;51.796;5.808;2022-12-05T11:18:55;21.45;;;11.82;;
25263;SDS011;13211;51.796;5.808;2022-12-05T11:21:23;18.15;;;11.20;;
25263;SDS011;13211;51.796;5.808;2022-12-05T11:23:51;19.15;;;11.55;;
25263;SDS011;13211;51.796;5.808;2022-12-05T11:26:33;21.60;;;12.15;;
25263;SDS011;13211;51.796;5.808;2022-12-05T11:29:02;19.08;;;11.32;;
25263;SDS011;13211;51.796;5.808;2022-12-05T11:31:30;18.42;;;11.07;;
25263;SDS011;13211;51.796;5.808;2022-12-05T11:34:03;15.85;;;10.27;;
25263;SDS011;13211;51.796;5.808;2022-12-05T11:36:39;17.40;;;10.30;;
25263;SDS011;13211;51.796;5.808;2022-12-05T11:39:08;14.63;;;9.43;;
25263;SDS011;13211;51.796;5.808;2022-12-05T11:44:21;16.55;;;9.65;;
25263;SDS011;13211;51.796;5.808;2022-12-05T11:47:57;17.30;;;9.80;;
25263;SDS011;13211;51.796;5.808;2022-12-05T12:00:21;16.30;;;9.57;;
25263;SDS011;13211;51.796;5.808;2022-12-05T12:02:57;15.55;;;9.13;;
25263;SDS011;13211;51.796;5.808;2022-12-05T12:05:34;18.80;;;10.02;;
25263;SDS011;13211;51.796;5.808;2022-12-05T12:21:21;20.77;;;10.53;;
25263;SDS011;13211;51.796;5.808;2022-12-05T12:26:50;16.80;;;10.52;;
25263;SDS011;13211;51.796;5.808;2022-12-05T12:31:53;16.20;;;10.32;;
25263;SDS011;13211;51.796;5.808;2022-12-05T12:34:41;17.38;;;10.18;;
25263;SDS011;13211;51.796;5.808;2022-12-05T12:39:43;22.35;;;11.55;;
25263;SDS011;13211;51.796;5.808;2022-12-05T12:42:17;19.92;;;11.27;;
25263;SDS011;13211;51.796;5.808;2022-12-05T12:47:30;22.30;;;11.52;;
25263;SDS011;13211;51.796;5.808;2022-12-05T12:50:19;18.92;;;11.15;;
25263;SDS011;13211;51.796;5.808;2022-12-05T13:00:22;18.88;;;11.23;;
25263;SDS011;13211;51.796;5.808;2022-12-05T13:06:04;18.27;;;10.98;;
25263;SDS011;13211;51.796;5.808;2022-12-05T13:08:43;18.83;;;11.63;;
25263;SDS011;13211;51.796;5.808;2022-12-05T13:11:12;21.33;;;11.60;;
25263;SDS011;13211;51.796;5.808;2022-12-05T13:13:48;20.83;;;12.73;;
25263;SDS011;13211;51.796;5.808;2022-12-05T13:16:30;19.42;;;11.38;;
25263;SDS011;13211;51.796;5.808;2022-12-05T13:18:59;18.95;;;11.25;;
25263;SDS011;13211;51.796;5.808;2022-12-05T13:21:29;20.65;;;11.80;;
25263;SDS011;13211;51.796;5.808;2022-12-05T13:23:59;19.27;;;12.13;;
25263;SDS011;13211;51.796;5.808;2022-12-05T13:26:30;21.92;;;12.15;;
25263;SDS011;13211;51.796;5.808;2022-12-05T13:29:02;19.02;;;11.00;;
25263;SDS011;13211;51.796;5.808;2022-12-05T13:34:01;18.77;;;11.50;;
25263;SDS011;13211;51.796;5.808;2022-12-05T13:36:36;18.55;;;11.77;;
25263;SDS011;13211;51.796;5.808;2022-12-05T13:39:23;19.98;;;12.00;;
25263;SDS011;13211;51.796;5.808;2022-12-05T13:42:26;17.50;;;11.82;;
25263;SDS011;13211;51.796;5.808;2022-12-05T13:47:32;17.55;;;11.52;;
25263;SDS011;13211;51.796;5.808;2022-12-05T13:52:38;17.33;;;11.52;;
25263;SDS011;13211;51.796;5.808;2022-12-05T13:57:49;19.52;;;11.63;;
25263;SDS011;13211;51.796;5.808;2022-12-05T14:00:27;17.50;;;10.68;;
25263;SDS011;13211;51.796;5.808;2022-12-05T14:02:59;17.45;;;11.07;;
25263;SDS011;13211;51.796;5.808;2022-12-05T14:05:38;16.85;;;11.02;;
25263;SDS011;13211;51.796;5.808;2022-12-05T14:15:53;18.23;;;10.75;;
25263;SDS011;13211;51.796;5.808;2022-12-05T14:23:38;18.02;;;11.48;;
25263;SDS011;13211;51.796;5.808;2022-12-05T14:31:30;18.40;;;11.75;;
25263;SDS011;13211;51.796;5.808;2022-12-05T14:36:53;18.48;;;11.45;;
25263;SDS011;13211;51.796;5.808;2022-12-05T14:42:03;19.65;;;12.20;;
25263;SDS011;13211;51.796;5.808;2022-12-05T14:47:00;19.75;;;12.50;;
25263;SDS011;13211;51.796;5.808;2022-12-05T14:49:32;22.52;;;12.70;;
25263;SDS011;13211;51.796;5.808;2022-12-05T14:52:09;21.33;;;12.48;;
25263;SDS011;13211;51.796;5.808;2022-12-05T14:54:37;20.17;;;12.88;;
25263;SDS011;13211;51.796;5.808;2022-12-05T14:57:10;21.95;;;13.05;;
25263;SDS011;13211;51.796;5.808;2022-12-05T14:59:43;19.65;;;12.48;;
25263;SDS011;13211;51.796;5.808;2022-12-05T15:02:15;23.15;;;13.20;;
25263;SDS011;13211;51.796;5.808;2022-12-05T15:04:59;24.80;;;14.18;;
25263;SDS011;13211;51.796;5.808;2022-12-05T15:07:42;21.00;;;13.15;;
25263;SDS011;13211;51.796;5.808;2022-12-05T15:10:24;22.13;;;13.70;;
25263;SDS011;13211;51.796;5.808;2022-12-05T15:12:59;22.48;;;13.15;;
25263;SDS011;13211;51.796;5.808;2022-12-05T15:20:56;22.55;;;14.02;;
25263;SDS011;13211;51.796;5.808;2022-12-05T15:31:36;23.77;;;14.40;;
25263;SDS011;13211;51.796;5.808;2022-12-05T15:34:12;25.98;;;15.00;;
25263;SDS011;13211;51.796;5.808;2022-12-05T15:36:43;22.15;;;13.77;;
25263;SDS011;13211;51.796;5.808;2022-12-05T15:39:19;24.05;;;14.85;;
25263;SDS011;13211;51.796;5.808;2022-12-05T15:41:55;23.55;;;14.30;;
25263;SDS011;13211;51.796;5.808;2022-12-05T15:44:26;24.58;;;15.13;;
25263;SDS011;13211;51.796;5.808;2022-12-05T15:47:02;24.17;;;14.05;;
25263;SDS011;13211;51.796;5.808;2022-12-05T15:49:33;23.42;;;14.15;;
25263;SDS011;13211;51.796;5.808;2022-12-05T15:54:46;24.85;;;14.52;;
25263;SDS011;13211;51.796;5.808;2022-12-05T15:57:19;20.98;;;12.75;;
25263;SDS011;13211;51.796;5.808;2022-12-05T15:59:49;24.90;;;14.07;;
25263;SDS011;13211;51.796;5.808;2022-12-05T16:02:24;22.35;;;14.07;;
25263;SDS011;13211;51.796;5.808;2022-12-05T16:04:55;23.67;;;13.60;;
25263;SDS011;13211;51.796;5.808;2022-12-05T16:07:24;23.92;;;14.18;;
25263;SDS011;13211;51.796;5.808;2022-12-05T16:09:57;21.48;;;13.10;;
25263;SDS011;13211;51.796;5.808;2022-12-05T16:12:34;20.90;;;13.27;;
25263;SDS011;13211;51.796;5.808;2022-12-05T16:17:39;20.48;;;12.27;;
25263;SDS011;13211;51.796;5.808;2022-12-05T16:20:10;18.10;;;11.73;;
25263;SDS011;13211;51.796;5.808;2022-12-05T16:22:42;17.60;;;11.70;;
25263;SDS011;13211;51.796;5.808;2022-12-05T16:25:15;19.10;;;11.13;;
25263;SDS011;13211;51.796;5.808;2022-12-05T16:27:54;18.08;;;11.18;;
25263;SDS011;13211;51.796;5.808;2022-12-05T16:30:23;18.30;;;10.85;;
25263;SDS011;13211;51.796;5.808;2022-12-05T16:32:58;14.52;;;9.65;;
25263;SDS011;13211;51.796;5.808;2022-12-05T16:35:34;16.92;;;8.65;;
25263;SDS011;13211;51.796;5.808;2022-12-05T16:40:30;10.63;;;6.97;;
25263;SDS011;13211;51.796;5.808;2022-12-05T16:43:04;9.85;;;5.50;;
25263;SDS011;13211;51.796;5.808;2022-12-05T16:45:40;8.63;;;5.53;;
25263;SDS011;13211;51.796;5.808;2022-12-05T16:48:24;8.88;;;4.97;;
25263;SDS011;13211;51.796;5.808;2022-12-05T16:53:41;7.18;;;4.22;;
25263;SDS011;13211;51.796;5.808;2022-12-05T16:56:10;6.88;;;4.20;;
25263;SDS011;13211;51.796;5.808;2022-12-05T17:01:11;10.63;;;4.38;;
25263;SDS011;13211;51.796;5.808;2022-12-05T17:03:42;6.45;;;3.90;;
25263;SDS011;13211;51.796;5.808;2022-12-05T17:06:11;6.20;;;4.07;;
25263;SDS011;13211;51.796;5.808;2022-12-05T17:08:40;5.93;;;3.78;;
25263;SDS011;13211;51.796;5.808;2022-12-05T17:11:29;5.95;;;3.45;;
25263;SDS011;13211;51.796;5.808;2022-12-05T17:13:56;5.75;;;3.33;;
25263;SDS011;13211;51.796;5.808;2022-12-05T17:16:24;5.68;;;3.63;;
25263;SDS011;13211;51.796;5.808;2022-12-05T17:18:52;6.10;;;3.60;;
25263;SDS011;13211;51.796;5.808;2022-12-05T17:21:25;7.40;;;3.92;;
25263;SDS011;13211;51.796;5.808;2022-12-05T17:24:00;6.80;;;3.53;;
25263;SDS011;13211;51.796;5.808;2022-12-05T17:26:29;5.82;;;3.60;;
25263;SDS011;13211;51.796;5.808;2022-12-05T17:28:57;5.97;;;3.80;;
25263;SDS011;13211;51.796;5.808;2022-12-05T17:31:25;6.90;;;3.60;;
25263;SDS011;13211;51.796;5.808;2022-12-05T17:33:54;6.35;;;3.58;;
25263;SDS011;13211;51.796;5.808;2022-12-05T17:36:21;6.85;;;4.07;;
25263;SDS011;13211;51.796;5.808;2022-12-05T17:38:49;9.90;;;4.28;;
25263;SDS011;13211;51.796;5.808;2022-12-05T17:41:18;5.90;;;4.18;;